createdAt,value
2019-02-20T00:00:18.331Z,0
2019-02-20T00:01:20.242Z,0
2019-02-20T00:02:21.675Z,0
2019-02-20T00:03:23.120Z,0
2019-02-20T00:04:24.658Z,0
2019-02-20T00:05:26.120Z,0
2019-02-20T00:06:27.597Z,0
2019-02-20T00:07:29.194Z,0
2019-02-20T00:08:30.682Z,0
2019-02-20T00:09:32.133Z,0
2019-02-20T00:10:33.708Z,0
2019-02-20T00:11:35.198Z,0
2019-02-20T00:12:36.678Z,0
2019-02-20T00:13:38.241Z,0
2019-02-20T00:14:39.744Z,0
2019-02-20T00:15:41.317Z,0
2019-02-20T00:16:43.130Z,0
2019-02-20T00:17:45.282Z,0
2019-02-20T00:18:46.955Z,0
2019-02-20T00:19:48.461Z,0
2019-02-20T00:20:49.949Z,0
2019-02-20T00:21:51.676Z,0
2019-02-20T00:22:53.186Z,0
2019-02-20T00:23:54.608Z,0
2019-02-20T00:24:56.112Z,0
2019-02-20T00:25:57.564Z,0
2019-02-20T00:26:59.013Z,0
2019-02-20T00:28:00.662Z,0
2019-02-20T00:29:02.151Z,0
2019-02-20T00:30:03.740Z,0
2019-02-20T00:31:05.386Z,0
2019-02-20T00:32:06.863Z,0
2019-02-20T00:33:08.306Z,0
2019-02-20T00:34:10.108Z,0
2019-02-20T00:35:11.596Z,0
2019-02-20T00:36:13.169Z,0
2019-02-20T00:37:14.851Z,0
2019-02-20T00:38:16.335Z,0
2019-02-20T00:39:17.814Z,0
2019-02-20T00:40:19.384Z,0
2019-02-20T00:41:20.885Z,0
2019-02-20T00:42:22.367Z,0
2019-02-20T00:43:23.941Z,0
2019-02-20T00:44:25.392Z,0
2019-02-20T00:45:26.869Z,0
2019-02-20T00:46:28.438Z,0
2019-02-20T00:47:29.878Z,0
2019-02-20T00:48:31.419Z,0
2019-02-20T00:49:32.954Z,0
2019-02-20T00:50:34.444Z,0
2019-02-20T00:51:36.051Z,0
2019-02-20T00:52:37.498Z,0
2019-02-20T00:53:39.147Z,0
2019-02-20T00:54:40.576Z,0
2019-02-20T00:55:42.206Z,0
2019-02-20T00:56:43.650Z,0
2019-02-20T00:57:45.084Z,0
2019-02-20T00:58:46.749Z,0
2019-02-20T00:59:48.215Z,0
2019-02-20T01:00:49.650Z,0
2019-02-20T01:01:51.272Z,0
2019-02-20T01:02:52.710Z,0
2019-02-20T01:03:54.154Z,0
2019-02-20T01:04:55.779Z,0
2019-02-20T01:05:57.240Z,0
2019-02-20T01:06:58.673Z,0
2019-02-20T01:08:00.297Z,0
2019-02-20T01:09:01.713Z,0
2019-02-20T01:10:03.138Z,0
2019-02-20T01:11:04.838Z,0
2019-02-20T01:12:06.689Z,0
2019-02-20T01:13:08.143Z,0
2019-02-20T01:14:09.783Z,0
2019-02-20T01:15:11.230Z,0
2019-02-20T01:16:12.855Z,0
2019-02-20T01:17:14.350Z,0
2019-02-20T01:18:15.812Z,0
2019-02-20T01:19:17.451Z,0
2019-02-20T01:20:18.948Z,0
2019-02-20T01:21:20.401Z,0
2019-02-20T01:22:22.130Z,0
2019-02-20T01:23:23.612Z,0
2019-02-20T01:24:25.084Z,0
2019-02-20T01:25:26.660Z,0
2019-02-20T01:26:28.131Z,0
2019-02-20T01:27:29.772Z,0
2019-02-20T01:28:31.182Z,0
2019-02-20T01:29:32.627Z,0
2019-02-20T01:30:34.285Z,0
2019-02-20T01:31:35.795Z,0
2019-02-20T01:32:37.253Z,0
2019-02-20T01:33:38.776Z,0
2019-02-20T01:34:40.247Z,0
2019-02-20T01:35:41.982Z,0
2019-02-20T01:36:43.459Z,0
2019-02-20T01:37:45.169Z,0
2019-02-20T01:38:46.648Z,0
2019-02-20T01:39:49.436Z,0
2019-02-20T01:40:49.735Z,0
2019-02-20T01:41:51.197Z,0
2019-02-20T01:42:52.642Z,0
2019-02-20T01:43:54.203Z,0
2019-02-20T01:44:55.677Z,0
2019-02-20T01:45:57.306Z,0
2019-02-20T01:46:58.779Z,0
2019-02-20T01:48:00.413Z,0
2019-02-20T01:49:01.914Z,0
2019-02-20T01:50:03.546Z,0
2019-02-20T01:51:05.028Z,0
2019-02-20T01:52:06.579Z,0
2019-02-20T01:53:10.425Z,0
2019-02-20T01:54:09.469Z,0
2019-02-20T01:55:11.116Z,0
2019-02-20T01:56:12.577Z,0
2019-02-20T01:57:14.042Z,0
2019-02-20T01:58:15.617Z,0
2019-02-20T01:59:17.071Z,0
2019-02-20T02:00:18.733Z,0
2019-02-20T02:01:20.212Z,0
2019-02-20T02:02:21.783Z,0
2019-02-20T02:03:23.270Z,0
2019-02-20T02:04:24.922Z,0
2019-02-20T02:05:26.436Z,0
2019-02-20T02:06:27.978Z,0
2019-02-20T02:07:29.471Z,0
2019-02-20T02:08:31.066Z,0
2019-02-20T02:09:32.574Z,0
2019-02-20T02:10:34.064Z,0
2019-02-20T02:11:35.797Z,0
2019-02-20T02:12:37.324Z,0
2019-02-20T02:13:38.754Z,0
2019-02-20T02:14:40.299Z,0
2019-02-20T02:15:41.800Z,0
2019-02-20T02:16:43.275Z,0
2019-02-20T02:17:44.869Z,0
2019-02-20T02:18:46.375Z,0
2019-02-20T02:19:47.866Z,0
2019-02-20T02:20:49.591Z,0
2019-02-20T02:21:51.124Z,0
2019-02-20T02:22:52.627Z,0
2019-02-20T02:23:54.300Z,0
2019-02-20T02:24:55.765Z,0
2019-02-20T02:25:57.398Z,0
2019-02-20T02:26:59.018Z,0
2019-02-20T02:28:00.706Z,0
2019-02-20T02:29:02.205Z,0
2019-02-20T02:30:03.793Z,0
2019-02-20T02:31:05.255Z,0
2019-02-20T02:32:06.823Z,0
2019-02-20T02:33:08.308Z,0
2019-02-20T02:34:10.309Z,0
2019-02-20T02:35:11.723Z,0
2019-02-20T02:36:13.405Z,0
2019-02-20T02:37:14.955Z,0
2019-02-20T02:38:16.557Z,0
2019-02-20T02:39:18.053Z,0
2019-02-20T02:40:19.608Z,0
2019-02-20T02:41:21.141Z,0
2019-02-20T02:42:22.739Z,0
2019-02-20T02:43:24.259Z,0
2019-02-20T02:44:25.893Z,0
2019-02-20T02:45:27.324Z,0
2019-02-20T02:46:28.953Z,0
2019-02-20T02:47:30.379Z,0
2019-02-20T02:48:31.990Z,0
2019-02-20T02:49:33.542Z,0
2019-02-20T02:50:35.052Z,0
2019-02-20T02:51:36.710Z,0
2019-02-20T02:52:38.191Z,0
2019-02-20T02:53:39.703Z,0
2019-02-20T02:54:41.447Z,0
2019-02-20T02:55:42.907Z,0
2019-02-20T02:56:44.512Z,0
2019-02-20T02:57:46.087Z,0
2019-02-20T02:58:47.596Z,0
2019-02-20T02:59:49.093Z,0
2019-02-20T03:00:50.653Z,0
2019-02-20T03:01:52.127Z,0
2019-02-20T03:02:53.787Z,0
2019-02-20T03:03:55.320Z,0
2019-02-20T03:04:56.817Z,0
2019-02-20T03:05:58.527Z,0
2019-02-20T03:07:00.031Z,0
2019-02-20T03:08:01.570Z,0
2019-02-20T03:09:04.262Z,0
2019-02-20T03:10:05.597Z,0
2019-02-20T03:11:07.128Z,0
2019-02-20T03:12:08.821Z,0
2019-02-20T03:13:10.287Z,0
2019-02-20T03:14:11.767Z,0
2019-02-20T03:15:13.314Z,0
2019-02-20T03:16:14.822Z,0
2019-02-20T03:17:16.308Z,0
2019-02-20T03:18:18.023Z,0
2019-02-20T03:19:19.540Z,0
2019-02-20T03:20:21.042Z,0
2019-02-20T03:21:22.734Z,0
2019-02-20T03:22:24.202Z,0
2019-02-20T03:23:25.848Z,0
2019-02-20T03:24:27.472Z,0
2019-02-20T03:25:28.983Z,0
2019-02-20T03:26:30.533Z,0
2019-02-20T03:27:32.224Z,0
2019-02-20T03:28:33.725Z,0
2019-02-20T03:29:35.229Z,0
2019-02-20T03:30:37.015Z,0
2019-02-20T03:31:38.511Z,0
2019-02-20T03:32:40.074Z,0
2019-02-20T03:33:41.600Z,0
2019-02-20T03:34:43.221Z,0
2019-02-20T03:35:44.749Z,0
2019-02-20T03:36:46.216Z,0
2019-02-20T03:37:47.875Z,0
2019-02-20T03:38:49.348Z,0
2019-02-20T03:39:50.911Z,0
2019-02-20T03:40:52.675Z,0
2019-02-20T03:41:54.172Z,0
2019-02-20T03:42:55.891Z,0
2019-02-20T03:43:57.767Z,0
2019-02-20T03:44:59.549Z,0
2019-02-20T03:46:00.989Z,0
2019-02-20T03:47:02.648Z,0
2019-02-20T03:48:04.224Z,0
2019-02-20T03:49:06.021Z,0
2019-02-20T03:50:07.586Z,0
2019-02-20T03:51:09.183Z,0
2019-02-20T03:52:10.626Z,0
2019-02-20T03:53:12.292Z,0
2019-02-20T03:54:13.704Z,0
2019-02-20T03:55:15.385Z,0
2019-02-20T03:56:16.835Z,0
2019-02-20T03:57:18.294Z,0
2019-02-20T03:58:19.892Z,0
2019-02-20T03:59:21.361Z,0
2019-02-20T04:00:22.903Z,0
2019-02-20T04:01:24.440Z,0
2019-02-20T04:02:25.888Z,0
2019-02-20T04:03:27.508Z,0
2019-02-20T04:04:28.975Z,0
2019-02-20T04:05:30.434Z,0
2019-02-20T04:06:32.058Z,0
2019-02-20T04:07:34.418Z,0
2019-02-20T04:08:35.951Z,0
2019-02-20T04:09:37.569Z,0
2019-02-20T04:10:39.017Z,0
2019-02-20T04:11:40.458Z,0
2019-02-20T04:12:42.240Z,0
2019-02-20T04:13:43.681Z,0
2019-02-20T04:14:45.126Z,0
2019-02-20T04:15:46.656Z,0
2019-02-20T04:16:48.167Z,0
2019-02-20T04:17:49.606Z,0
2019-02-20T04:18:51.598Z,0
2019-02-20T04:19:53.017Z,0
2019-02-20T04:20:54.442Z,0
2019-02-20T04:21:56.079Z,0
2019-02-20T04:22:57.519Z,0
2019-02-20T04:24:02.271Z,0
2019-02-20T04:25:00.476Z,0
2019-02-20T04:26:01.973Z,0
2019-02-20T04:27:03.600Z,0
2019-02-20T04:28:05.020Z,0
2019-02-20T04:29:06.465Z,0
2019-02-20T04:30:08.015Z,0
2019-02-20T04:31:09.472Z,0
2019-02-20T04:32:11.544Z,0
2019-02-20T04:33:13.091Z,0
2019-02-20T04:34:14.602Z,0
2019-02-20T04:35:16.042Z,0
2019-02-20T04:36:17.522Z,0
2019-02-20T04:37:19.151Z,0
2019-02-20T04:38:20.595Z,0
2019-02-20T04:39:22.108Z,0
2019-02-20T04:40:23.697Z,0
2019-02-20T04:41:25.150Z,0
2019-02-20T04:42:26.870Z,0
2019-02-20T04:43:28.377Z,0
2019-02-20T04:44:30.176Z,0
2019-02-20T04:45:31.605Z,0
2019-02-20T04:46:33.160Z,0
2019-02-20T04:47:34.725Z,0
2019-02-20T04:48:36.247Z,0
2019-02-20T04:49:37.718Z,0
2019-02-20T04:50:39.370Z,0
2019-02-20T04:51:40.842Z,0
2019-02-20T04:52:42.345Z,0
2019-02-20T04:53:44.094Z,0
2019-02-20T04:54:45.608Z,0
2019-02-20T04:55:47.077Z,0
2019-02-20T04:56:49.607Z,0
2019-02-20T04:57:52.077Z,0
2019-02-20T04:58:53.555Z,0
2019-02-20T04:59:55.416Z,0
2019-02-20T05:00:57.047Z,0
2019-02-20T05:01:58.567Z,0
2019-02-20T05:03:01.138Z,0
2019-02-20T05:04:02.600Z,0
2019-02-20T05:05:04.158Z,0
2019-02-20T05:06:05.584Z,0
2019-02-20T05:07:07.040Z,0
2019-02-20T05:08:08.799Z,0
2019-02-20T05:09:10.191Z,0
2019-02-20T05:10:11.668Z,0
2019-02-20T05:11:13.245Z,0
2019-02-20T05:12:14.709Z,0
2019-02-20T05:13:16.152Z,0
2019-02-20T05:14:17.738Z,0
2019-02-20T05:15:19.211Z,0
2019-02-20T05:16:20.745Z,0
2019-02-20T05:17:22.329Z,0
2019-02-20T05:18:23.788Z,0
2019-02-20T05:19:25.214Z,0
2019-02-20T05:20:26.815Z,0
2019-02-20T05:21:28.275Z,0
2019-02-20T05:22:29.730Z,0
2019-02-20T05:23:31.429Z,0
2019-02-20T05:24:32.910Z,0
2019-02-20T05:25:34.415Z,0
2019-02-20T05:26:35.895Z,0
2019-02-20T05:27:37.550Z,0
2019-02-20T05:28:38.973Z,0
2019-02-20T05:29:40.605Z,0
2019-02-20T05:30:42.081Z,0
2019-02-20T05:31:43.560Z,0
2019-02-20T05:32:45.192Z,0
2019-02-20T05:33:46.670Z,0
2019-02-20T05:34:48.152Z,0
2019-02-20T05:35:49.657Z,0
2019-02-20T05:36:51.551Z,0
2019-02-20T05:37:52.992Z,0
2019-02-20T05:38:54.582Z,0
2019-02-20T05:39:56.840Z,0
2019-02-20T05:40:58.276Z,0
2019-02-20T05:42:00.325Z,0
2019-02-20T05:43:01.776Z,0
2019-02-20T05:44:03.252Z,0
2019-02-20T05:45:04.885Z,0
2019-02-20T05:46:06.284Z,0
2019-02-20T05:47:07.754Z,0
2019-02-20T05:48:09.408Z,0
2019-02-20T05:49:10.887Z,0
2019-02-20T05:50:12.351Z,0
2019-02-20T05:51:13.919Z,0
2019-02-20T05:52:15.390Z,0
2019-02-20T05:53:17.009Z,0
2019-02-20T05:54:18.528Z,0
2019-02-20T05:55:20.141Z,0
2019-02-20T05:56:21.613Z,0
2019-02-20T05:57:23.222Z,0
2019-02-20T05:58:24.675Z,0
2019-02-20T05:59:26.273Z,0
2019-02-20T06:00:27.747Z,0
2019-02-20T06:01:29.171Z,0
2019-02-20T06:02:30.836Z,0
2019-02-20T06:03:32.298Z,0
2019-02-20T06:04:33.723Z,0
2019-02-20T06:05:35.317Z,0
2019-02-20T06:06:36.783Z,0
2019-02-20T06:07:38.204Z,0
2019-02-20T06:08:39.845Z,0
2019-02-20T06:09:41.264Z,0
2019-02-20T06:10:42.686Z,0
2019-02-20T06:11:44.381Z,0
2019-02-20T06:12:45.857Z,0
2019-02-20T06:13:47.355Z,0
2019-02-20T06:14:48.923Z,0
2019-02-20T06:15:50.345Z,4
2019-02-20T06:16:51.805Z,4
2019-02-20T06:17:53.426Z,0
2019-02-20T06:18:54.881Z,4
2019-02-20T06:19:56.499Z,8
2019-02-20T06:20:57.945Z,4
2019-02-20T06:21:59.410Z,4
2019-02-20T06:23:01.095Z,8
2019-02-20T06:24:02.529Z,8
2019-02-20T06:25:04.020Z,8
2019-02-20T06:26:05.962Z,8
2019-02-20T06:27:07.944Z,12
2019-02-20T06:28:08.830Z,12
2019-02-20T06:29:10.496Z,12
2019-02-20T06:30:12.671Z,16
2019-02-20T06:31:14.195Z,20
2019-02-20T06:32:15.638Z,20
2019-02-20T06:33:17.284Z,24
2019-02-20T06:34:18.748Z,28
2019-02-20T06:35:20.347Z,24
2019-02-20T06:36:21.780Z,28
2019-02-20T06:37:23.423Z,32
2019-02-20T06:38:24.867Z,36
2019-02-20T06:39:26.539Z,40
2019-02-20T06:40:27.996Z,36
2019-02-20T06:41:38.295Z,44
2019-02-20T06:42:31.119Z,48
2019-02-20T06:43:32.584Z,52
2019-02-20T06:44:34.156Z,60
2019-02-20T06:45:35.612Z,68
2019-02-20T06:46:37.081Z,80
2019-02-20T06:47:38.683Z,88
2019-02-20T06:48:40.106Z,92
2019-02-20T06:49:42.170Z,104
2019-02-20T06:50:43.638Z,112
2019-02-20T06:51:45.266Z,120
2019-02-20T06:52:46.688Z,124
2019-02-20T06:53:48.158Z,124
2019-02-20T06:54:53.969Z,132
2019-02-20T06:55:51.177Z,140
2019-02-20T06:56:52.629Z,144
2019-02-20T06:57:54.311Z,152
2019-02-20T06:58:55.770Z,160
2019-02-20T06:59:57.391Z,164
2019-02-20T07:00:58.814Z,168
2019-02-20T07:02:00.467Z,164
2019-02-20T07:03:01.922Z,172
2019-02-20T07:04:03.579Z,180
2019-02-20T07:05:05.005Z,188
2019-02-20T07:06:06.678Z,196
2019-02-20T07:07:08.120Z,212
2019-02-20T07:08:09.738Z,228
2019-02-20T07:09:11.213Z,244
2019-02-20T07:10:12.855Z,252
2019-02-20T07:11:14.297Z,256
2019-02-20T07:12:15.897Z,268
2019-02-20T07:13:17.341Z,296
2019-02-20T07:14:19.027Z,332
2019-02-20T07:15:20.488Z,348
2019-02-20T07:16:22.064Z,360
2019-02-20T07:17:23.513Z,380
2019-02-20T07:18:25.141Z,420
2019-02-20T07:19:26.586Z,456
2019-02-20T07:20:28.267Z,476
2019-02-20T07:21:29.702Z,504
2019-02-20T07:22:31.331Z,532
2019-02-20T07:23:32.770Z,548
2019-02-20T07:24:34.453Z,552
2019-02-20T07:25:35.918Z,556
2019-02-20T07:26:37.499Z,568
2019-02-20T07:27:38.959Z,580
2019-02-20T07:28:40.565Z,592
2019-02-20T07:29:42.048Z,600
2019-02-20T07:30:43.656Z,616
2019-02-20T07:31:45.143Z,620
2019-02-20T07:32:46.931Z,636
2019-02-20T07:33:48.389Z,672
2019-02-20T07:34:50.118Z,728
2019-02-20T07:35:51.577Z,784
2019-02-20T07:36:53.163Z,804
2019-02-20T07:37:54.585Z,800
2019-02-20T07:38:56.009Z,788
2019-02-20T07:39:57.625Z,780
2019-02-20T07:40:59.031Z,776
2019-02-20T07:42:00.433Z,740
2019-02-20T07:43:01.942Z,664
2019-02-20T07:44:03.343Z,632
2019-02-20T07:45:04.776Z,572
2019-02-20T07:46:07.185Z,536
2019-02-20T07:47:08.595Z,652
2019-02-20T07:48:09.986Z,716
2019-02-20T07:49:11.609Z,548
2019-02-20T07:50:13.007Z,504
2019-02-20T07:51:14.924Z,560
2019-02-20T07:52:15.929Z,680
2019-02-20T07:53:17.329Z,764
2019-02-20T07:54:18.726Z,776
2019-02-20T07:55:20.258Z,784
2019-02-20T07:56:21.682Z,804
2019-02-20T07:57:23.081Z,836
2019-02-20T07:58:24.574Z,876
2019-02-20T07:59:25.976Z,896
2019-02-20T08:00:27.455Z,872
2019-02-20T08:01:28.855Z,840
2019-02-20T08:02:30.334Z,832
2019-02-20T08:03:31.730Z,768
2019-02-20T08:04:33.128Z,728
2019-02-20T08:05:34.651Z,736
2019-02-20T08:06:36.059Z,692
2019-02-20T08:07:37.452Z,692
2019-02-20T08:08:38.985Z,716
2019-02-20T08:09:40.376Z,740
2019-02-20T08:10:41.858Z,800
2019-02-20T08:11:43.256Z,856
2019-02-20T08:12:44.740Z,900
2019-02-20T08:13:46.143Z,928
2019-02-20T08:14:47.621Z,1036
2019-02-20T08:15:49.021Z,1176
2019-02-20T08:16:52.556Z,1244
2019-02-20T08:17:51.866Z,1236
2019-02-20T08:18:53.275Z,1136
2019-02-20T08:19:54.820Z,1180
2019-02-20T08:20:56.342Z,1520
2019-02-20T08:21:57.856Z,1732
2019-02-20T08:22:59.424Z,1672
2019-02-20T08:24:00.824Z,1584
2019-02-20T08:25:02.247Z,1624
2019-02-20T08:26:03.773Z,1708
2019-02-20T08:27:05.163Z,1696
2019-02-20T08:28:06.570Z,1700
2019-02-20T08:29:08.309Z,1536
2019-02-20T08:30:10.092Z,1540
2019-02-20T08:31:11.499Z,1744
2019-02-20T08:32:13.137Z,1880
2019-02-20T08:33:14.535Z,1820
2019-02-20T08:34:15.940Z,1988
2019-02-20T08:35:17.459Z,1936
2019-02-20T08:36:18.872Z,1628
2019-02-20T08:37:20.302Z,1456
2019-02-20T08:38:21.787Z,1492
2019-02-20T08:39:23.198Z,1592
2019-02-20T08:40:24.602Z,1696
2019-02-20T08:41:26.103Z,1768
2019-02-20T08:42:27.509Z,1748
2019-02-20T08:43:28.926Z,1856
2019-02-20T08:44:30.437Z,2012
2019-02-20T08:45:31.842Z,2040
2019-02-20T08:46:33.318Z,1880
2019-02-20T08:47:35.328Z,1884
2019-02-20T08:48:36.732Z,1884
2019-02-20T08:49:38.132Z,1864
2019-02-20T08:50:39.864Z,1832
2019-02-20T08:51:41.263Z,1764
2019-02-20T08:52:42.720Z,1728
2019-02-20T08:53:44.234Z,1576
2019-02-20T08:54:45.634Z,1612
2019-02-20T08:55:47.070Z,1532
2019-02-20T08:56:48.521Z,1200
2019-02-20T08:57:49.961Z,1360
2019-02-20T08:58:51.405Z,1540
2019-02-20T08:59:52.847Z,1344
2019-02-20T09:00:54.371Z,1480
2019-02-20T09:01:55.774Z,1724
2019-02-20T09:02:57.364Z,1664
2019-02-20T09:03:58.848Z,1880
2019-02-20T09:05:00.368Z,2048
2019-02-20T09:06:01.914Z,2224
2019-02-20T09:07:03.404Z,2264
2019-02-20T09:08:04.863Z,2296
2019-02-20T09:09:06.670Z,2320
2019-02-20T09:10:08.107Z,2352
2019-02-20T09:11:09.617Z,2300
2019-02-20T09:12:11.279Z,2144
2019-02-20T09:13:12.775Z,2344
2019-02-20T09:14:14.225Z,2536
2019-02-20T09:15:15.784Z,2652
2019-02-20T09:16:17.426Z,2660
2019-02-20T09:17:18.856Z,2652
2019-02-20T09:18:20.445Z,2476
2019-02-20T09:19:21.842Z,2524
2019-02-20T09:20:23.272Z,2544
2019-02-20T09:21:24.770Z,3420
2019-02-20T09:22:26.232Z,3412
2019-02-20T09:23:27.749Z,3320
2019-02-20T09:24:29.343Z,3132
2019-02-20T09:25:30.820Z,3096
2019-02-20T09:26:32.379Z,3080
2019-02-20T09:27:33.873Z,3284
2019-02-20T09:28:37.148Z,3132
2019-02-20T09:29:36.964Z,3184
2019-02-20T09:30:38.581Z,3128
2019-02-20T09:31:40.240Z,3068
2019-02-20T09:32:41.763Z,2988
2019-02-20T09:33:43.197Z,2964
2019-02-20T09:34:44.770Z,3016
2019-02-20T09:35:46.348Z,3012
2019-02-20T09:36:47.830Z,3048
2019-02-20T09:37:49.593Z,3012
2019-02-20T09:38:51.123Z,2916
2019-02-20T09:39:52.618Z,2828
2019-02-20T09:40:54.366Z,2708
2019-02-20T09:41:55.945Z,2692
2019-02-20T09:42:57.531Z,2716
2019-02-20T09:43:59.986Z,2684
2019-02-20T09:45:01.726Z,2612
2019-02-20T09:46:03.339Z,2532
2019-02-20T09:47:04.840Z,2520
2019-02-20T09:48:06.385Z,2640
2019-02-20T09:49:07.848Z,2716
2019-02-20T09:50:09.452Z,2908
2019-02-20T09:51:11.133Z,3036
2019-02-20T09:52:12.742Z,3144
2019-02-20T09:53:14.265Z,3396
2019-02-20T09:54:15.813Z,3696
2019-02-20T09:55:17.277Z,4084
2019-02-20T09:56:19.009Z,4208
2019-02-20T09:57:20.443Z,4380
2019-02-20T09:58:22.058Z,4716
2019-02-20T09:59:23.531Z,4708
2019-02-20T10:00:25.078Z,4728
2019-02-20T10:01:26.734Z,4388
2019-02-20T10:02:28.224Z,4152
2019-02-20T10:03:29.697Z,4036
2019-02-20T10:04:31.216Z,4016
2019-02-20T10:05:32.705Z,3844
2019-02-20T10:06:34.127Z,3764
2019-02-20T10:07:35.742Z,3572
2019-02-20T10:08:37.214Z,3328
2019-02-20T10:09:38.676Z,3244
2019-02-20T10:10:40.273Z,3072
2019-02-20T10:11:41.740Z,2880
2019-02-20T10:12:43.186Z,2816
2019-02-20T10:13:44.782Z,2900
2019-02-20T10:14:46.300Z,3196
2019-02-20T10:15:47.771Z,3200
2019-02-20T10:16:49.375Z,3196
2019-02-20T10:17:50.810Z,3332
2019-02-20T10:18:52.381Z,3472
2019-02-20T10:19:53.820Z,3576
2019-02-20T10:20:55.436Z,3548
2019-02-20T10:21:56.944Z,3508
2019-02-20T10:22:58.392Z,3548
2019-02-20T10:23:59.880Z,3492
2019-02-20T10:25:01.519Z,3564
2019-02-20T10:26:03.284Z,3576
2019-02-20T10:27:04.779Z,3600
2019-02-20T10:28:06.412Z,3648
2019-02-20T10:29:07.851Z,3496
2019-02-20T10:30:09.365Z,3508
2019-02-20T10:31:10.936Z,3444
2019-02-20T10:32:12.369Z,3412
2019-02-20T10:33:13.921Z,3432
2019-02-20T10:34:15.425Z,3472
2019-02-20T10:35:16.947Z,3528
2019-02-20T10:36:18.415Z,3472
2019-02-20T10:37:19.973Z,3264
2019-02-20T10:38:21.419Z,2932
2019-02-20T10:39:22.979Z,2672
2019-02-20T10:40:24.529Z,2624
2019-02-20T10:41:25.982Z,2792
2019-02-20T10:42:27.663Z,3072
2019-02-20T10:43:29.321Z,3372
2019-02-20T10:44:30.849Z,3556
2019-02-20T10:45:32.385Z,3612
2019-02-20T10:46:34.273Z,3616
2019-02-20T10:47:36.104Z,3640
2019-02-20T10:48:37.684Z,3596
2019-02-20T10:49:39.135Z,3468
2019-02-20T10:50:40.760Z,3292
2019-02-20T10:51:42.212Z,3096
2019-02-20T10:52:43.859Z,2960
2019-02-20T10:53:45.310Z,2940
2019-02-20T10:54:46.938Z,3068
2019-02-20T10:55:48.387Z,3296
2019-02-20T10:56:49.869Z,3564
2019-02-20T10:57:51.425Z,3764
2019-02-20T10:58:52.869Z,3900
2019-02-20T10:59:54.389Z,3964
2019-02-20T11:00:55.958Z,3980
2019-02-20T11:01:57.392Z,4016
2019-02-20T11:02:58.845Z,3960
2019-02-20T11:04:00.554Z,3956
2019-02-20T11:05:01.990Z,3976
2019-02-20T11:06:03.436Z,3884
2019-02-20T11:07:05.031Z,3756
2019-02-20T11:08:06.481Z,3672
2019-02-20T11:09:08.094Z,3588
2019-02-20T11:10:09.511Z,3532
2019-02-20T11:11:11.011Z,3532
2019-02-20T11:12:12.457Z,3516
2019-02-20T11:13:14.544Z,3448
2019-02-20T11:14:15.998Z,3548
2019-02-20T11:15:17.689Z,3688
2019-02-20T11:16:19.176Z,3732
2019-02-20T11:17:20.791Z,3708
2019-02-20T11:18:22.221Z,3624
2019-02-20T11:19:23.960Z,3520
2019-02-20T11:20:25.347Z,3484
2019-02-20T11:21:26.941Z,3420
2019-02-20T11:22:28.384Z,3436
2019-02-20T11:23:30.077Z,3472
2019-02-20T11:24:31.515Z,3528
2019-02-20T11:25:33.341Z,3760
2019-02-20T11:26:43.304Z,3820
2019-02-20T11:27:36.187Z,3884
2019-02-20T11:28:37.837Z,3524
2019-02-20T11:29:39.698Z,3128
2019-02-20T11:30:41.311Z,3388
2019-02-20T11:31:42.760Z,3272
2019-02-20T11:32:44.199Z,2944
2019-02-20T11:33:46.899Z,2492
2019-02-20T11:34:48.412Z,2608
2019-02-20T11:35:49.891Z,2952
2019-02-20T11:36:51.603Z,2888
2019-02-20T11:37:53.100Z,2248
2019-02-20T11:38:54.567Z,1440
2019-02-20T11:39:56.306Z,1396
2019-02-20T11:40:57.745Z,2000
2019-02-20T11:41:59.232Z,2204
2019-02-20T11:43:00.855Z,1992
2019-02-20T11:44:02.679Z,2424
2019-02-20T11:45:04.372Z,2300
2019-02-20T11:46:05.816Z,1712
2019-02-20T11:47:07.965Z,2080
2019-02-20T11:48:09.431Z,2080
2019-02-20T11:49:11.207Z,1820
2019-02-20T11:50:12.658Z,2264
2019-02-20T11:51:14.249Z,2256
2019-02-20T11:52:15.724Z,2040
2019-02-20T11:53:17.200Z,2668
2019-02-20T11:54:18.988Z,2884
2019-02-20T11:55:20.459Z,3012
2019-02-20T11:56:26.657Z,3092
2019-02-20T11:57:23.593Z,3300
2019-02-20T11:58:25.063Z,3348
2019-02-20T11:59:26.507Z,3404
2019-02-20T12:00:28.384Z,3160
2019-02-20T12:01:29.832Z,2900
2019-02-20T12:02:37.350Z,2812
2019-02-20T12:03:32.962Z,2572
2019-02-20T12:04:34.455Z,2816
2019-02-20T12:05:35.920Z,3076
2019-02-20T12:06:37.870Z,2748
2019-02-20T12:07:39.324Z,2540
2019-02-20T12:08:41.089Z,2600
2019-02-20T12:09:42.543Z,2912
2019-02-20T12:10:44.703Z,2640
2019-02-20T12:11:46.198Z,1912
2019-02-20T12:12:47.958Z,1244
2019-02-20T12:13:49.416Z,1060
2019-02-20T12:14:51.053Z,1444
2019-02-20T12:15:52.517Z,1776
2019-02-20T12:16:54.229Z,2004
2019-02-20T12:17:55.981Z,2156
2019-02-20T12:18:57.493Z,2328
2019-02-20T12:19:58.952Z,2404
2019-02-20T12:21:00.603Z,2300
2019-02-20T12:22:02.051Z,2128
2019-02-20T12:23:03.592Z,1708
2019-02-20T12:24:05.215Z,1560
2019-02-20T12:25:06.668Z,1580
2019-02-20T12:26:08.163Z,1632
2019-02-20T12:27:09.810Z,1612
2019-02-20T12:28:11.269Z,1572
2019-02-20T12:29:12.834Z,1440
2019-02-20T12:30:14.698Z,1328
2019-02-20T12:31:16.341Z,1168
2019-02-20T12:32:17.845Z,1092
2019-02-20T12:33:20.237Z,1172
2019-02-20T12:34:21.685Z,1420
2019-02-20T12:35:23.129Z,1784
2019-02-20T12:36:24.933Z,2044
2019-02-20T12:37:26.290Z,1816
2019-02-20T12:38:27.890Z,1912
2019-02-20T12:39:29.422Z,2044
2019-02-20T12:40:31.142Z,2612
2019-02-20T12:41:32.586Z,2748
2019-02-20T12:42:34.312Z,2500
2019-02-20T12:43:35.744Z,2416
2019-02-20T12:44:37.823Z,3136
2019-02-20T12:45:39.291Z,2884
2019-02-20T12:46:41.051Z,2600
2019-02-20T12:47:42.547Z,2440
2019-02-20T12:48:44.251Z,2100
2019-02-20T12:49:46.363Z,2008
2019-02-20T12:50:47.339Z,1864
2019-02-20T12:51:48.816Z,1716
2019-02-20T12:52:50.478Z,1892
2019-02-20T12:53:51.970Z,2232
2019-02-20T12:54:53.584Z,2368
2019-02-20T12:55:55.246Z,2368
2019-02-20T12:56:56.779Z,2304
2019-02-20T12:57:58.532Z,2304
2019-02-20T12:59:07.420Z,2096
2019-02-20T13:00:01.613Z,2048
2019-02-20T13:01:03.072Z,2076
2019-02-20T13:02:04.474Z,1952
2019-02-20T13:03:06.082Z,2008
2019-02-20T13:04:07.489Z,1960
2019-02-20T13:05:08.888Z,2096
2019-02-20T13:06:10.612Z,1956
2019-02-20T13:07:12.014Z,1640
2019-02-20T13:08:13.418Z,1292
2019-02-20T13:09:15.136Z,996
2019-02-20T13:10:16.537Z,1228
2019-02-20T13:11:18.245Z,1608
2019-02-20T13:12:19.649Z,1700
2019-02-20T13:13:21.308Z,1672
2019-02-20T13:14:22.711Z,1524
2019-02-20T13:15:24.590Z,1316
2019-02-20T13:16:26.376Z,1520
2019-02-20T13:17:27.784Z,2116
2019-02-20T13:18:29.573Z,1936
2019-02-20T13:19:31.188Z,1672
2019-02-20T13:20:32.581Z,1680
2019-02-20T13:21:33.987Z,2016
2019-02-20T13:22:35.766Z,2216
2019-02-20T13:23:37.237Z,2228
2019-02-20T13:24:38.794Z,2008
2019-02-20T13:25:40.197Z,2004
2019-02-20T13:26:42.255Z,2084
2019-02-20T13:27:43.661Z,2172
2019-02-20T13:28:45.068Z,2008
2019-02-20T13:29:46.607Z,1776
2019-02-20T13:30:48.027Z,1876
2019-02-20T13:31:49.425Z,1828
2019-02-20T13:32:51.139Z,1980
2019-02-20T13:33:52.537Z,1976
2019-02-20T13:34:53.943Z,1832
2019-02-20T13:35:55.663Z,1756
2019-02-20T13:36:57.069Z,1716
2019-02-20T13:37:58.472Z,1768
2019-02-20T13:39:00.186Z,1840
2019-02-20T13:40:01.594Z,1892
2019-02-20T13:41:02.999Z,1748
2019-02-20T13:42:05.002Z,1536
2019-02-20T13:43:06.746Z,1472
2019-02-20T13:44:08.413Z,1416
2019-02-20T13:45:10.206Z,1424
2019-02-20T13:46:11.913Z,1524
2019-02-20T13:47:13.312Z,1380
2019-02-20T13:48:14.996Z,1632
2019-02-20T13:49:16.398Z,1756
2019-02-20T13:50:18.080Z,1508
2019-02-20T13:51:19.479Z,1512
2019-02-20T13:52:20.847Z,1448
2019-02-20T13:53:22.397Z,1272
2019-02-20T13:54:23.799Z,1320
2019-02-20T13:55:34.050Z,1340
2019-02-20T13:56:26.723Z,1360
2019-02-20T13:57:28.125Z,1464
2019-02-20T13:58:29.528Z,1504
2019-02-20T13:59:31.251Z,1276
2019-02-20T14:00:32.680Z,1236
2019-02-20T14:01:34.335Z,1316
2019-02-20T14:02:35.736Z,1472
2019-02-20T14:03:37.422Z,1516
2019-02-20T14:04:38.836Z,1600
2019-02-20T14:05:40.513Z,1544
2019-02-20T14:06:41.912Z,1540
2019-02-20T14:07:43.594Z,1500
2019-02-20T14:08:44.997Z,1472
2019-02-20T14:09:46.397Z,1448
2019-02-20T14:10:47.910Z,1396
2019-02-20T14:11:49.313Z,1368
2019-02-20T14:12:50.723Z,1364
2019-02-20T14:13:52.438Z,1380
2019-02-20T14:14:53.842Z,1340
2019-02-20T14:15:55.523Z,1448
2019-02-20T14:16:56.926Z,1488
2019-02-20T14:17:58.617Z,1352
2019-02-20T14:19:00.023Z,1364
2019-02-20T14:20:01.696Z,1364
2019-02-20T14:21:03.102Z,1336
2019-02-20T14:22:04.782Z,1244